createdAt,value
2023-01-17T00:02:00.726Z,97139.23
2023-01-17T00:07:22.348Z,97134.14
2023-01-17T00:12:28.974Z,97124.72
2023-01-17T00:17:31.363Z,97120.88
2023-01-17T00:22:52.739Z,97118.67
2023-01-17T00:27:55.184Z,97112.33
2023-01-17T00:32:58.030Z,97107.20
2023-01-17T00:38:01.792Z,97102.60
2023-01-17T00:43:24.968Z,97099.23
2023-01-17T00:48:47.310Z,97104.17
2023-01-17T00:54:11.980Z,97102.20
2023-01-17T00:59:34.272Z,97103.76
2023-01-17T01:04:55.813Z,97100.91
2023-01-17T01:10:17.133Z,97097.73
2023-01-17T01:15:39.525Z,97089.02
2023-01-17T01:21:02.479Z,97068.81
2023-01-17T01:26:24.680Z,97074.98
2023-01-17T01:31:46.441Z,97060.58
2023-01-17T01:36:49.906Z,97064.27
2023-01-17T01:41:53.026Z,97066.20
2023-01-17T01:46:56.303Z,97057.11
2023-01-17T01:52:03.663Z,97056.66
2023-01-17T01:57:12.303Z,97050.02
2023-01-17T02:02:15.573Z,97039.64
2023-01-17T02:07:51.372Z,97036.48
2023-01-17T02:12:55.904Z,97029.45
2023-01-17T02:18:19.855Z,97033.34
2023-01-17T02:23:32.324Z,97028.58
2023-01-17T02:28:40.319Z,97030.92
2023-01-17T02:34:01.009Z,97031.67
2023-01-17T02:39:19.214Z,97026.17
2023-01-17T02:44:22.436Z,97018.54
2023-01-17T02:49:28.490Z,97006.55
2023-01-17T02:54:52.404Z,97008.81
2023-01-17T03:00:27.485Z,97003.87
2023-01-17T03:05:47.061Z,97004.41
2023-01-17T03:10:50.963Z,97000.69
2023-01-17T03:15:53.954Z,97006.65
2023-01-17T03:20:56.987Z,97008.10
2023-01-17T03:26:00.407Z,97017.56
2023-01-17T03:31:02.698Z,97020.55
2023-01-17T03:36:05.334Z,97018.94
2023-01-17T03:41:09.362Z,97015.05
2023-01-17T03:46:24.049Z,97015.73
2023-01-17T03:51:28.823Z,97012.06
2023-01-17T03:56:32.906Z,97003.73
2023-01-17T04:01:36.105Z,96996.09
2023-01-17T04:06:39.888Z,96993.67
2023-01-17T04:11:44.012Z,96990.66
2023-01-17T04:16:51.669Z,96988.10
2023-01-17T04:21:55.088Z,96977.36
2023-01-17T04:26:58.549Z,96981.34
2023-01-17T04:32:01.711Z,96975.79
2023-01-17T04:37:04.977Z,96973.88
2023-01-17T04:42:07.605Z,96975.38
2023-01-17T04:47:10.439Z,96981.06
2023-01-17T04:52:15.459Z,96978.02
2023-01-17T04:57:19.598Z,96973.33
2023-01-17T05:02:22.664Z,96967.34
2023-01-17T05:07:24.865Z,96982.86
2023-01-17T05:12:29.347Z,97001.65
2023-01-17T05:17:33.440Z,97003.28
2023-01-17T05:22:36.641Z,97003.05
2023-01-17T05:27:38.848Z,97002.27
2023-01-17T05:32:41.966Z,97006.80
2023-01-17T05:37:48.918Z,97009.90
2023-01-17T05:42:55.433Z,97010.58
2023-01-17T05:47:59.221Z,97023.83
2023-01-17T05:53:08.527Z,97017.24
2023-01-17T05:58:18.408Z,97019.51
2023-01-17T06:03:21.330Z,97020.98
2023-01-17T06:08:24.241Z,97023.10
2023-01-17T06:13:28.457Z,97030.29
2023-01-17T06:18:31.694Z,97033.64
2023-01-17T06:23:34.365Z,97040.26
2023-01-17T06:28:36.716Z,97049.52
2023-01-17T06:33:40.054Z,97064.69
2023-01-17T06:38:43.435Z,97063.95
2023-01-17T06:43:48.855Z,97067.42
2023-01-17T06:48:52.738Z,97065.44
2023-01-17T06:53:55.593Z,97061.77
2023-01-17T06:58:58.892Z,97068.11
2023-01-17T07:04:04.169Z,97069.50
2023-01-17T07:09:07.949Z,97073.21
2023-01-17T07:14:14.065Z,97083.55
2023-01-17T07:19:16.667Z,97085.38
2023-01-17T07:24:20.321Z,97085.37
2023-01-17T07:29:23.641Z,97088.73
2023-01-17T07:34:29.284Z,97093.61
2023-01-17T07:39:33.119Z,97096.95
2023-01-17T07:44:37.159Z,97094.42
2023-01-17T07:49:40.656Z,97100.14
2023-01-17T07:54:43.877Z,97110.52
2023-01-17T07:59:46.030Z,97111.52
2023-01-17T08:04:49.201Z,97108.33
2023-01-17T08:09:51.563Z,97109.96
2023-01-17T08:14:53.620Z,97109.88
2023-01-17T08:19:57.105Z,97115.96
2023-01-17T08:25:00.614Z,97120.80
2023-01-17T08:30:04.555Z,97128.52
2023-01-17T08:35:08.725Z,97136.07
2023-01-17T08:40:12.185Z,97147.42
2023-01-17T08:45:14.643Z,97148.58
2023-01-17T08:50:21.022Z,97144.06
2023-01-17T08:55:23.453Z,97141.89
2023-01-17T09:00:26.555Z,97143.70
2023-01-17T09:05:28.318Z,97150.05
2023-01-17T09:10:30.616Z,97152.30
2023-01-17T09:15:32.505Z,97158.60
2023-01-17T09:20:34.414Z,97162.65
2023-01-17T09:25:37.133Z,97165.89
2023-01-17T09:30:39.370Z,97168.55
2023-01-17T09:35:42.669Z,97177.16
2023-01-17T09:40:48.666Z,97181.52
2023-01-17T09:45:51.642Z,97181.52
2023-01-17T09:51:04.323Z,97174.16
2023-01-17T09:56:13.305Z,97169.03
2023-01-17T10:01:19.423Z,97170.81
2023-01-17T10:06:41.882Z,97183.97
2023-01-17T10:11:52.801Z,97182.77
2023-01-17T10:17:29.186Z,97181.95
2023-01-17T10:23:01.726Z,97176.27
2023-01-17T10:28:12.626Z,97183.88
2023-01-17T10:33:32.010Z,97187.83
2023-01-17T10:38:44.024Z,97184.30
2023-01-17T10:44:14.036Z,97195.58
2023-01-17T10:49:21.711Z,97198.74
2023-01-17T10:54:42.552Z,97197.43
2023-01-17T10:59:45.733Z,97196.98
2023-01-17T11:04:55.344Z,97200.25
2023-01-17T11:10:00.040Z,97193.03
2023-01-17T11:15:08.982Z,97191.44
2023-01-17T11:20:17.300Z,97185.21
2023-01-17T11:25:27.596Z,97187.35
2023-01-17T11:30:30.330Z,97185.67
2023-01-17T11:35:43.802Z,97180.02
2023-01-17T11:40:49.075Z,97177.83
2023-01-17T11:46:19.205Z,97177.75
2023-01-17T11:51:35.528Z,97178.73
2023-01-17T11:56:45.575Z,97179.77
2023-01-17T12:02:10.533Z,97176.58
2023-01-17T12:07:28.043Z,97171.52
2023-01-17T12:13:05.716Z,97180.05
2023-01-17T12:18:27.085Z,97182.85
2023-01-17T12:24:00.905Z,97190.05
2023-01-17T12:29:21.464Z,97193.11
2023-01-17T12:34:40.392Z,97195.23
2023-01-17T12:39:53.038Z,97199.20
2023-01-17T12:45:10.041Z,97200.96
2023-01-17T12:50:26.717Z,97200.18
2023-01-17T12:55:31.977Z,97205.15
2023-01-17T13:00:38.642Z,97202.89
2023-01-17T13:05:45.811Z,97204.13
2023-01-17T13:10:57.541Z,97210.90
2023-01-17T13:16:27.754Z,97211.05
2023-01-17T13:21:37.230Z,97212.89
2023-01-17T13:26:55.220Z,97210.40
2023-01-17T13:32:26.378Z,97210.66
2023-01-17T13:37:53.455Z,97205.84
2023-01-17T13:42:59.787Z,97217.31
2023-01-17T13:48:23.204Z,97228.71
2023-01-17T13:53:35.784Z,97241.29
2023-01-17T13:58:54.999Z,97249.33
2023-01-17T14:03:58.802Z,97258.67
2023-01-17T14:09:27.151Z,97274.34
2023-01-17T14:14:45.571Z,97281.86
2023-01-17T14:19:55.697Z,97282.14
2023-01-17T14:25:17.391Z,97286.37
2023-01-17T14:30:25.138Z,97286.91
2023-01-17T14:35:48.607Z,97290.35
2023-01-17T14:41:08.566Z,97297.96
2023-01-17T14:46:28.602Z,97309.23
2023-01-17T14:51:35.250Z,97313.86
2023-01-17T14:56:38.803Z,97328.48
2023-01-17T15:01:42.046Z,97342.05
2023-01-17T15:06:48.113Z,97358.08
2023-01-17T15:11:52.511Z,97370.80
2023-01-17T15:16:55.040Z,97380.48
2023-01-17T15:21:57.980Z,97400.59
2023-01-17T15:27:05.864Z,97406.22
2023-01-17T15:32:19.914Z,97414.64
2023-01-17T15:37:32.342Z,97426.42
2023-01-17T15:42:39.057Z,97428.86
2023-01-17T15:47:43.980Z,97431.30
2023-01-17T15:52:53.714Z,97421.77
2023-01-17T15:57:57.743Z,97428.50
2023-01-17T16:03:01.450Z,97437.35
2023-01-17T16:08:04.438Z,97444.34
2023-01-17T16:13:09.389Z,97444.45
2023-01-17T16:18:19.348Z,97442.43
2023-01-17T16:23:22.526Z,97445.73
2023-01-17T16:28:26.091Z,97440.67
2023-01-17T16:33:28.548Z,97441.89
2023-01-17T16:38:32.254Z,97441.02
2023-01-17T16:43:34.913Z,97441.02
2023-01-17T16:48:38.050Z,97437.80
2023-01-17T16:53:41.549Z,97434.71
2023-01-17T16:58:44.382Z,97433.43
2023-01-17T17:03:49.571Z,97430.82
2023-01-17T17:08:52.276Z,97424.63
2023-01-17T17:13:57.695Z,97432.44
2023-01-17T17:19:07.381Z,97435.91
2023-01-17T17:24:12.930Z,97446.01
2023-01-17T17:29:16.180Z,97451.57
2023-01-17T17:34:18.905Z,97444.95
2023-01-17T17:39:21.659Z,97443.48
2023-01-17T17:44:24.443Z,97440.90
2023-01-17T17:49:27.824Z,97449.10
2023-01-17T17:54:32.699Z,97445.95
2023-01-17T17:59:34.998Z,97442.08
2023-01-17T18:04:37.515Z,97452.88
2023-01-17T18:09:39.909Z,97453.67
2023-01-17T18:14:42.187Z,97453.70
2023-01-17T18:19:45.986Z,97453.80
2023-01-17T18:24:50.433Z,97456.17
2023-01-17T18:29:53.446Z,97463.50
2023-01-17T18:34:58.145Z,97474.91
2023-01-17T18:40:02.911Z,97476.95
2023-01-17T18:45:08.536Z,97487.55
2023-01-17T18:50:11.032Z,97499.33
2023-01-17T18:55:13.248Z,97514.35
2023-01-17T19:00:17.539Z,97528.34
2023-01-17T19:05:21.323Z,97540.54
2023-01-17T19:10:26.218Z,97543.48
2023-01-17T19:15:32.988Z,97546.31
2023-01-17T19:20:36.486Z,97545.70
2023-01-17T19:25:39.787Z,97546.84
2023-01-17T19:30:42.602Z,97557.84
2023-01-17T19:35:45.646Z,97565.66
2023-01-17T19:40:50.422Z,97566.96
2023-01-17T19:46:00.208Z,97575.46
2023-01-17T19:51:11.559Z,97581.14
2023-01-17T19:56:24.395Z,97594.81
2023-01-17T20:01:35.443Z,97590.36
2023-01-17T20:06:41.457Z,97594.35
2023-01-17T20:11:50.628Z,97587.54
2023-01-17T20:16:56.920Z,97581.48
2023-01-17T20:22:04.358Z,97572.34
2023-01-17T20:27:15.982Z,97582.05
2023-01-17T20:32:28.036Z,97586.39
2023-01-17T20:37:36.997Z,97583.11
2023-01-17T20:42:41.952Z,97583.59
2023-01-17T20:47:47.478Z,97585.38
2023-01-17T20:52:51.428Z,97592.64
2023-01-17T20:57:55.062Z,97591.27
2023-01-17T21:02:58.514Z,97586.56
2023-01-17T21:08:04.158Z,97577.36
2023-01-17T21:13:07.414Z,97579.73
2023-01-17T21:18:10.119Z,97578.70
2023-01-17T21:23:17.792Z,97576.13
2023-01-17T21:28:21.573Z,97576.46
2023-01-17T21:33:26.743Z,97573.05
2023-01-17T21:38:31.285Z,97571.69
2023-01-17T21:43:35.061Z,97566.77
2023-01-17T21:48:41.029Z,97559.83
2023-01-17T21:53:44.281Z,97562.98
2023-01-17T21:58:53.831Z,97557.98
2023-01-17T22:04:02.941Z,97548.86
2023-01-17T22:09:07.142Z,97547.10
2023-01-17T22:14:10.484Z,97547.10
2023-01-17T22:19:12.951Z,97563.34
2023-01-17T22:24:17.744Z,97578.44
2023-01-17T22:29:21.515Z,97570.70
2023-01-17T22:34:26.876Z,97562.59
2023-01-17T22:39:29.974Z,97558.59
2023-01-17T22:44:32.884Z,97545.21
2023-01-17T22:49:35.305Z,97546.08
2023-01-17T22:54:37.892Z,97541.17
2023-01-17T22:59:40.279Z,97551.25
2023-01-17T23:04:43.035Z,97564.08
2023-01-17T23:09:45.981Z,97571.33
2023-01-17T23:15:08.234Z,97572.02
2023-01-17T23:20:12.093Z,97564.27
2023-01-17T23:25:15.669Z,97561.84
2023-01-17T23:30:50.868Z,97564.43
2023-01-17T23:35:53.752Z,97550.89
2023-01-17T23:41:26.781Z,97557.81
2023-01-17T23:46:30.191Z,97556.70
2023-01-17T23:51:33.144Z,97550.87
2023-01-17T23:56:35.757Z,97540.26
